Time;durP1;ratioP1;P1;durP2;ratioP2;P2;SDS_P1;SDS_P2;PMS_P1;PMS_P2;Temp;Humidity;BMP_temperature;BMP_pressure;BME280_temperature;BME280_humidity;BME280_pressure;Samples;Min_cycle;Max_cycle;Signal;HPM_P1;HPM_P2
2022/10/26 00:02:07;;;;;;;10.93;7.53;;;;;;;;;;5024452;28;20211;-72
2022/10/26 00:04:32;;;;;;;15.63;9.03;;;;;;;;;;5030849;28;20644;-72
2022/10/26 00:06:57;;;;;;;12.77;8.40;;;;;;;;;;5039430;28;20186;-72
2022/10/26 00:09:22;;;;;;;13.27;8.70;;;;;;;;;;5028419;28;20570;-72
2022/10/26 00:11:47;;;;;;;12.83;9.17;;;;;;;;;;5024668;28;20182;-72
2022/10/26 00:14:13;;;;;;;13.13;9.13;;;;;;;;;;5029552;28;20205;-73
2022/10/26 00:16:38;;;;;;;19.53;9.40;;;;;;;;;;5031710;28;20645;-73
2022/10/26 00:19:03;;;;;;;12.30;8.00;;;;;;;;;;5031243;28;20198;-73
2022/10/26 00:21:28;;;;;;;11.90;9.07;;;;;;;;;;5026236;28;20210;-70
2022/10/26 00:23:53;;;;;;;12.10;7.70;;;;;;;;;;5022136;28;20656;-72
2022/10/26 00:26:19;;;;;;;15.98;9.18;;;;;;;;;;5021245;28;20251;-72
2022/10/26 00:28:44;;;;;;;17.50;8.90;;;;;;;;;;5026772;28;20296;-72
2022/10/26 00:31:13;;;;;;;9.73;8.00;;;;;;;;;;5030838;28;20214;-72
2022/10/26 00:33:38;;;;;;;12.23;8.60;;;;;;;;;;5028807;28;20182;-72
2022/10/26 00:36:04;;;;;;;11.97;7.83;;;;;;;;;;5028942;28;20233;-72
2022/10/26 00:38:29;;;;;;;14.17;8.73;;;;;;;;;;5029156;28;20247;-72
2022/10/26 00:40:54;;;;;;;18.48;8.90;;;;;;;;;;5023835;28;20175;-72
2022/10/26 00:43:20;;;;;;;13.27;7.73;;;;;;;;;;5021364;28;20298;-72
2022/10/26 00:45:45;;;;;;;13.23;7.90;;;;;;;;;;5030535;28;20670;-70
2022/10/26 00:48:15;;;;;;;13.17;7.73;;;;;;;;;;5027748;28;20178;-72
2022/10/26 00:50:43;;;;;;;11.13;7.10;;;;;;;;;;5034013;28;20236;-72
2022/10/26 00:53:09;;;;;;;11.50;6.68;;;;;;;;;;5031524;28;20183;-72
2022/10/26 00:55:37;;;;;;;12.80;7.45;;;;;;;;;;5029381;28;20186;-70
2022/10/26 00:58:04;;;;;;;10.83;7.60;;;;;;;;;;5030688;28;20270;-72
2022/10/26 01:00:29;;;;;;;14.65;7.38;;;;;;;;;;5027578;28;20476;-70
2022/10/26 01:02:56;;;;;;;11.10;7.13;;;;;;;;;;5023941;28;20601;-72
2022/10/26 01:05:22;;;;;;;11.77;6.57;;;;;;;;;;5030544;28;20231;-72
2022/10/26 01:07:47;;;;;;;10.88;6.50;;;;;;;;;;5017900;28;20690;-72
2022/10/26 01:10:14;;;;;;;10.27;7.68;;;;;;;;;;5027511;28;20194;-72
2022/10/26 01:12:39;;;;;;;11.93;6.70;;;;;;;;;;5027952;28;22134;-72
2022/10/26 01:15:04;;;;;;;8.70;6.47;;;;;;;;;;5030915;28;20182;-72
2022/10/26 01:17:39;;;;;;;7.93;5.82;;;;;;;;;;5026249;28;20227;-72
2022/10/26 01:20:22;;;;;;;12.32;7.30;;;;;;;;;;5018773;28;20214;-72
2022/10/26 01:22:47;;;;;;;8.82;6.38;;;;;;;;;;5021088;28;20174;-72
2022/10/26 01:25:36;;;;;;;27.67;7.45;;;;;;;;;;5025221;28;20225;-72
2022/10/26 01:28:06;;;;;;;14.93;11.63;;;;;;;;;;5026515;28;20558;-72
2022/10/26 01:30:31;;;;;;;12.75;10.23;;;;;;;;;;5042309;28;20214;-72
2022/10/26 01:33:16;;;;;;;20.80;15.90;;;;;;;;;;5029830;28;20209;-72
2022/10/26 01:35:54;;;;;;;21.98;15.43;;;;;;;;;;5022307;28;20206;-72
2022/10/26 01:38:19;;;;;;;17.77;14.50;;;;;;;;;;5029251;28;20256;-73
2022/10/26 01:40:48;;;;;;;17.30;12.48;;;;;;;;;;5020942;28;20175;-70
2022/10/26 01:43:14;;;;;;;17.20;12.80;;;;;;;;;;5025493;28;20219;-73
2022/10/26 01:45:40;;;;;;;22.48;12.77;;;;;;;;;;5029711;28;20304;-70
2022/10/26 01:48:06;;;;;;;17.73;10.43;;;;;;;;;;5040560;28;20213;-73
2022/10/26 01:50:32;;;;;;;16.77;9.85;;;;;;;;;;5024809;28;21809;-73
2022/10/26 01:52:58;;;;;;;13.13;8.82;;;;;;;;;;5026441;28;20181;-73
2022/10/26 01:55:41;;;;;;;12.18;8.25;;;;;;;;;;5020441;28;20575;-73
2022/10/26 01:58:29;;;;;;;10.25;7.82;;;;;;;;;;5023622;28;20175;-74
2022/10/26 02:01:00;;;;;;;13.18;7.88;;;;;;;;;;5026579;28;20200;-71
2022/10/26 02:03:32;;;;;;;11.32;7.50;;;;;;;;;;5026717;28;20229;-71
2022/10/26 02:05:57;;;;;;;10.48;6.65;;;;;;;;;;5026746;28;20185;-71
2022/10/26 02:08:22;;;;;;;11.88;7.05;;;;;;;;;;5020793;28;20198;-71
2022/10/26 02:11:09;;;;;;;13.05;6.57;;;;;;;;;;5021433;28;20610;-71
2022/10/26 02:13:34;;;;;;;10.05;6.60;;;;;;;;;;5023151;28;20352;-71
2022/10/26 02:16:35;;;;;;;10.43;6.30;;;;;;;;;;5027546;28;22367;-71
2022/10/26 02:19:03;;;;;;;9.27;5.57;;;;;;;;;;4962161;28;20445;-72
2022/10/26 02:21:30;;;;;;;9.43;5.65;;;;;;;;;;5016364;28;20186;-71
2022/10/26 02:23:57;;;;;;;9.18;6.45;;;;;;;;;;5024977;28;20172;-71
2022/10/26 02:26:23;;;;;;;11.20;7.22;;;;;;;;;;5024122;28;20185;-71
2022/10/26 02:28:49;;;;;;;8.80;5.70;;;;;;;;;;5023313;28;20257;-71
2022/10/26 02:31:15;;;;;;;12.18;7.00;;;;;;;;;;5020478;28;20182;-71
2022/10/26 02:33:44;;;;;;;11.38;5.93;;;;;;;;;;5027048;28;20174;-71
2022/10/26 02:36:11;;;;;;;8.23;6.00;;;;;;;;;;5022348;28;20256;-71
2022/10/26 02:38:38;;;;;;;11.43;6.38;;;;;;;;;;5015979;28;20207;-74
2022/10/26 02:41:03;;;;;;;10.57;7.45;;;;;;;;;;5022448;28;20682;-71
2022/10/26 02:43:31;;;;;;;9.27;6.10;;;;;;;;;;5029165;28;20174;-71
2022/10/26 02:46:00;;;;;;;11.02;6.97;;;;;;;;;;5028579;28;20580;-71
2022/10/26 02:51:38;;;;;;;9.55;5.95;;;;;;;;;;5020782;28;20287;-71
2022/10/26 02:54:13;;;;;;;11.95;5.88;;;;;;;;;;5021436;28;20198;-70
2022/10/26 02:56:45;;;;;;;10.00;6.78;;;;;;;;;;5019873;28;20216;-73
2022/10/26 02:59:11;;;;;;;11.65;6.63;;;;;;;;;;5027504;28;20571;-72
2022/10/26 03:01:36;;;;;;;9.30;6.03;;;;;;;;;;5028013;28;20549;-72
2022/10/26 03:04:02;;;;;;;9.95;6.55;;;;;;;;;;5031840;28;20178;-72
2022/10/26 03:06:27;;;;;;;8.35;6.50;;;;;;;;;;5031750;28;20540;-71
2022/10/26 03:08:52;;;;;;;12.93;6.80;;;;;;;;;;5021310;28;20201;-71
2022/10/26 03:11:17;;;;;;;8.90;6.32;;;;;;;;;;5023372;28;20186;-71
2022/10/26 03:13:43;;;;;;;12.30;7.32;;;;;;;;;;5033340;28;20170;-71
2022/10/26 03:16:08;;;;;;;14.60;8.05;;;;;;;;;;5025121;28;20228;-71
2022/10/26 03:18:34;;;;;;;8.88;6.45;;;;;;;;;;5022143;28;20723;-71
2022/10/26 03:20:59;;;;;;;9.00;7.07;;;;;;;;;;5028521;28;20174;-71
2022/10/26 03:23:24;;;;;;;11.32;6.65;;;;;;;;;;5039325;28;20202;-70
2022/10/26 03:25:50;;;;;;;11.00;6.40;;;;;;;;;;5026432;28;20265;-73
2022/10/26 03:28:15;;;;;;;12.45;7.95;;;;;;;;;;5030259;28;20561;-73
2022/10/26 03:30:40;;;;;;;9.43;6.75;;;;;;;;;;5028811;28;20212;-72
2022/10/26 03:33:05;;;;;;;8.73;6.63;;;;;;;;;;5031021;28;20186;-72
2022/10/26 03:35:30;;;;;;;9.80;6.70;;;;;;;;;;5026520;28;20210;-72
2022/10/26 03:37:56;;;;;;;8.60;6.35;;;;;;;;;;5023854;28;20565;-72
2022/10/26 03:40:21;;;;;;;8.82;5.85;;;;;;;;;;5030027;28;20198;-72
2022/10/26 03:42:46;;;;;;;9.52;7.53;;;;;;;;;;5031234;28;20183;-72
2022/10/26 03:45:11;;;;;;;11.23;7.03;;;;;;;;;;5031159;28;20175;-72
2022/10/26 03:47:44;;;;;;;9.93;7.10;;;;;;;;;;5030790;28;20266;-72
2022/10/26 03:50:10;;;;;;;10.90;6.30;;;;;;;;;;5029951;28;20208;-72
2022/10/26 03:52:35;;;;;;;10.93;6.38;;;;;;;;;;5024820;28;20261;-73
2022/10/26 03:55:00;;;;;;;11.48;6.30;;;;;;;;;;5023862;28;20182;-73
2022/10/26 03:57:25;;;;;;;12.68;7.28;;;;;;;;;;5021195;28;20658;-73
2022/10/26 03:59:50;;;;;;;12.75;6.88;;;;;;;;;;5032694;28;20205;-73
2022/10/26 04:02:16;;;;;;;8.63;6.38;;;;;;;;;;5030023;28;20239;-73
2022/10/26 04:04:41;;;;;;;8.82;5.72;;;;;;;;;;5028767;28;20179;-73
2022/10/26 04:07:06;;;;;;;10.50;6.63;;;;;;;;;;5024132;28;20190;-73
2022/10/26 04:09:31;;;;;;;10.27;5.93;;;;;;;;;;5030370;28;20630;-74
2022/10/26 04:11:56;;;;;;;11.40;6.88;;;;;;;;;;5028053;28;20201;-72
2022/10/26 04:14:22;;;;;;;8.60;6.15;;;;;;;;;;5026494;28;20639;-72
2022/10/26 04:16:47;;;;;;;8.05;5.90;;;;;;;;;;5029931;28;20287;-72
2022/10/26 04:19:12;;;;;;;12.68;6.18;;;;;;;;;;5031834;28;20201;-72
2022/10/26 04:21:37;;;;;;;10.68;5.22;;;;;;;;;;5030440;28;20182;-72
2022/10/26 04:24:03;;;;;;;8.73;5.47;;;;;;;;;;5030449;28;20549;-72
2022/10/26 04:26:28;;;;;;;11.70;5.25;;;;;;;;;;5031619;28;20178;-72
2022/10/26 04:28:53;;;;;;;9.40;5.43;;;;;;;;;;5026416;28;20241;-72
2022/10/26 04:31:18;;;;;;;7.40;5.30;;;;;;;;;;5021349;28;20220;-72
2022/10/26 04:33:43;;;;;;;8.55;5.65;;;;;;;;;;5021784;28;20183;-72
2022/10/26 04:36:09;;;;;;;7.80;4.90;;;;;;;;;;5025019;28;20233;-72
2022/10/26 04:38:34;;;;;;;10.60;5.05;;;;;;;;;;5030545;28;20229;-72
2022/10/26 04:40:59;;;;;;;8.45;5.55;;;;;;;;;;5031663;28;20174;-73
2022/10/26 04:43:24;;;;;;;9.43;4.88;;;;;;;;;;5033135;28;20180;-72
2022/10/26 04:45:53;;;;;;;6.68;4.65;;;;;;;;;;5034576;28;20170;-73
2022/10/26 04:48:18;;;;;;;6.35;4.93;;;;;;;;;;5032196;28;20261;-72
2022/10/26 04:50:43;;;;;;;7.95;5.40;;;;;;;;;;5025289;28;20265;-72
2022/10/26 04:53:08;;;;;;;9.07;5.90;;;;;;;;;;5024298;28;20549;-73
2022/10/26 04:55:34;;;;;;;7.28;5.05;;;;;;;;;;5026034;28;20208;-72
2022/10/26 04:57:59;;;;;;;7.90;5.03;;;;;;;;;;5027864;28;20178;-72
2022/10/26 05:00:24;;;;;;;7.53;4.88;;;;;;;;;;5026668;28;20240;-72
2022/10/26 05:02:49;;;;;;;6.63;5.43;;;;;;;;;;5029043;28;20647;-72
2022/10/26 05:05:15;;;;;;;7.85;4.93;;;;;;;;;;5026264;28;20174;-72
2022/10/26 05:07:40;;;;;;;6.70;4.30;;;;;;;;;;5026477;28;20177;-72
2022/10/26 05:10:05;;;;;;;5.93;4.80;;;;;;;;;;5031207;28;20187;-72
2022/10/26 05:12:30;;;;;;;11.45;4.90;;;;;;;;;;5020436;28;20178;-72
2022/10/26 05:14:57;;;;;;;9.07;5.65;;;;;;;;;;5025477;28;20181;-72
2022/10/26 05:17:23;;;;;;;7.07;4.78;;;;;;;;;;5029176;28;20231;-72
2022/10/26 05:19:54;;;;;;;6.43;4.30;;;;;;;;;;5030398;28;20201;-72
2022/10/26 05:22:19;;;;;;;7.55;5.40;;;;;;;;;;5015055;28;20236;-72
2022/10/26 05:24:44;;;;;;;7.55;4.70;;;;;;;;;;5031522;28;20173;-72
2022/10/26 05:27:09;;;;;;;5.47;4.90;;;;;;;;;;5019968;28;20552;-72
2022/10/26 05:29:34;;;;;;;7.15;4.45;;;;;;;;;;5028272;28;20535;-72
2022/10/26 05:31:59;;;;;;;7.40;4.35;;;;;;;;;;5031373;28;20188;-72
2022/10/26 05:34:25;;;;;;;6.45;4.40;;;;;;;;;;5028206;28;20187;-72
2022/10/26 05:36:51;;;;;;;6.20;4.28;;;;;;;;;;5023983;28;20324;-72
2022/10/26 05:39:17;;;;;;;6.78;4.72;;;;;;;;;;5041747;28;20206;-73
2022/10/26 05:41:42;;;;;;;8.38;5.15;;;;;;;;;;5022141;28;20175;-72
2022/10/26 05:44:07;;;;;;;9.15;4.88;;;;;;;;;;5029926;28;20182;-72
2022/10/26 05:46:32;;;;;;;6.18;4.20;;;;;;;;;;5019609;28;20584;-72
2022/10/26 05:48:57;;;;;;;16.17;5.82;;;;;;;;;;5026806;28;20277;-73
2022/10/26 05:51:22;;;;;;;7.03;4.65;;;;;;;;;;5021453;28;20178;-72
2022/10/26 05:53:50;;;;;;;6.30;4.40;;;;;;;;;;5016471;28;20257;-72
2022/10/26 05:56:19;;;;;;;4.65;3.92;;;;;;;;;;5019440;28;20205;-72
2022/10/26 05:58:45;;;;;;;5.78;4.43;;;;;;;;;;5023544;28;20194;-72
2022/10/26 06:01:37;;;;;;;5.68;4.10;;;;;;;;;;5024414;28;20182;-72
2022/10/26 06:04:12;;;;;;;5.47;3.88;;;;;;;;;;5029065;28;20670;-72
2022/10/26 06:06:41;;;;;;;8.63;3.80;;;;;;;;;;5026464;28;20277;-72
2022/10/26 06:09:08;;;;;;;6.95;3.83;;;;;;;;;;5030868;28;20198;-72
2022/10/26 06:11:34;;;;;;;4.32;3.85;;;;;;;;;;5037843;28;20182;-72
2022/10/26 06:14:00;;;;;;;5.55;3.40;;;;;;;;;;5024403;28;20265;-72
2022/10/26 06:16:32;;;;;;;5.30;3.78;;;;;;;;;;5021177;28;20194;-72
2022/10/26 06:19:04;;;;;;;8.63;4.47;;;;;;;;;;5017043;28;20192;-72
2022/10/26 06:21:48;;;;;;;5.45;4.43;;;;;;;;;;5015667;28;20187;-73
2022/10/26 06:24:19;;;;;;;5.97;4.28;;;;;;;;;;5026974;28;20261;-72
2022/10/26 06:26:44;;;;;;;4.70;3.13;;;;;;;;;;5016726;28;20201;-72
2022/10/26 06:29:16;;;;;;;4.43;3.08;;;;;;;;;;5019129;28;20218;-72
2022/10/26 06:31:42;;;;;;;5.88;3.25;;;;;;;;;;5022408;28;20722;-72
2022/10/26 06:34:09;;;;;;;4.32;3.75;;;;;;;;;;5022002;28;20178;-72
2022/10/26 06:36:35;;;;;;;7.85;3.67;;;;;;;;;;5030285;28;20597;-73
2022/10/26 06:39:05;;;;;;;4.10;3.10;;;;;;;;;;5021152;28;20242;-72
2022/10/26 06:41:32;;;;;;;8.65;3.75;;;;;;;;;;5014557;28;20261;-72
2022/10/26 06:43:57;;;;;;;8.55;3.92;;;;;;;;;;5011361;28;20178;-72
2022/10/26 06:46:40;;;;;;;6.15;3.20;;;;;;;;;;5022173;28;20174;-72
2022/10/26 06:49:21;;;;;;;6.20;3.83;;;;;;;;;;5025429;28;20706;-72
2022/10/26 06:51:50;;;;;;;7.82;3.20;;;;;;;;;;5028733;28;20196;-72
2022/10/26 06:54:44;;;;;;;7.97;3.53;;;;;;;;;;5022079;28;20178;-72
2022/10/26 06:57:11;;;;;;;8.18;3.38;;;;;;;;;;5010447;28;20232;-72
2022/10/26 06:59:39;;;;;;;7.15;3.70;;;;;;;;;;5027810;28;20233;-72
2022/10/26 07:02:04;;;;;;;6.68;3.78;;;;;;;;;;5030056;28;20705;-72
2022/10/26 07:04:29;;;;;;;4.72;3.63;;;;;;;;;;5030218;28;20178;-72
2022/10/26 07:06:55;;;;;;;10.00;3.60;;;;;;;;;;5038092;28;20643;-72
2022/10/26 07:09:21;;;;;;;4.65;3.17;;;;;;;;;;5022444;28;20195;-72
2022/10/26 07:11:46;;;;;;;8.52;3.70;;;;;;;;;;5023900;28;20171;-72
2022/10/26 07:14:11;;;;;;;5.73;3.47;;;;;;;;;;5017093;28;20175;-72
2022/10/26 07:16:36;;;;;;;4.53;2.83;;;;;;;;;;5029030;28;20902;-72
2022/10/26 07:19:01;;;;;;;7.63;3.83;;;;;;;;;;5024748;28;20420;-72
2022/10/26 07:21:27;;;;;;;4.60;3.38;;;;;;;;;;5024520;28;20178;-72
2022/10/26 07:23:54;;;;;;;7.97;3.47;;;;;;;;;;5030655;28;20194;-72
2022/10/26 07:26:19;;;;;;;6.10;4.10;;;;;;;;;;5021325;28;20197;-72
2022/10/26 07:28:47;;;;;;;5.70;3.10;;;;;;;;;;5024662;28;20693;-72
2022/10/26 07:31:12;;;;;;;4.95;3.10;;;;;;;;;;5020932;28;20209;-73
2022/10/26 07:33:37;;;;;;;5.13;2.90;;;;;;;;;;5019613;28;20665;-73
2022/10/26 07:36:02;;;;;;;4.15;3.65;;;;;;;;;;5027885;28;20213;-73
2022/10/26 07:38:28;;;;;;;9.85;3.30;;;;;;;;;;5023829;28;20281;-74
2022/10/26 07:40:54;;;;;;;10.00;4.90;;;;;;;;;;5024982;28;20182;-74
2022/10/26 07:43:20;;;;;;;5.53;3.35;;;;;;;;;;5030213;28;20174;-71
2022/10/26 07:45:47;;;;;;;5.82;3.30;;;;;;;;;;5038375;28;20179;-74
2022/10/26 07:48:12;;;;;;;4.20;2.90;;;;;;;;;;5034273;28;20249;-74
2022/10/26 07:50:37;;;;;;;6.80;3.17;;;;;;;;;;5033556;28;20692;-73
2022/10/26 07:53:03;;;;;;;7.53;3.58;;;;;;;;;;5031039;28;20430;-73
2022/10/26 07:55:28;;;;;;;3.60;2.93;;;;;;;;;;5031267;28;20193;-73
2022/10/26 07:57:53;;;;;;;4.63;3.78;;;;;;;;;;5024339;28;21832;-73
2022/10/26 08:00:18;;;;;;;5.88;4.03;;;;;;;;;;5027090;28;20198;-73
2022/10/26 08:02:44;;;;;;;4.85;3.47;;;;;;;;;;5028233;28;20289;-72
2022/10/26 08:05:09;;;;;;;8.23;3.70;;;;;;;;;;5020916;28;20189;-74
2022/10/26 08:07:39;;;;;;;8.07;3.10;;;;;;;;;;5027833;28;20427;-73
2022/10/26 08:10:04;;;;;;;7.68;3.30;;;;;;;;;;5027330;28;20518;-73
2022/10/26 08:12:29;;;;;;;4.20;2.45;;;;;;;;;;5030752;28;20568;-71
2022/10/26 08:14:55;;;;;;;3.13;2.58;;;;;;;;;;5025915;28;20182;-73
2022/10/26 08:17:21;;;;;;;5.83;2.37;;;;;;;;;;5031824;28;20590;-71
2022/10/26 08:19:46;;;;;;;7.10;2.70;;;;;;;;;;5027620;28;20978;-71
2022/10/26 08:22:11;;;;;;;6.30;2.85;;;;;;;;;;5023867;28;20191;-71
2022/10/26 08:24:36;;;;;;;6.20;3.50;;;;;;;;;;5023128;28;20183;-74
2022/10/26 08:27:02;;;;;;;4.30;2.65;;;;;;;;;;5030875;28;20244;-71
2022/10/26 08:29:27;;;;;;;7.43;2.23;;;;;;;;;;5031516;28;20308;-71
2022/10/26 08:31:52;;;;;;;5.43;2.43;;;;;;;;;;5027626;28;20493;-71
2022/10/26 08:34:17;;;;;;;5.13;2.90;;;;;;;;;;5025757;28;20456;-73
2022/10/26 08:36:42;;;;;;;3.87;3.00;;;;;;;;;;5033404;28;20190;-72
2022/10/26 08:39:07;;;;;;;6.65;2.70;;;;;;;;;;5031316;28;20454;-71
2022/10/26 08:41:43;;;;;;;4.18;2.83;;;;;;;;;;5032443;28;20213;-71
2022/10/26 08:44:44;;;;;;;7.63;2.78;;;;;;;;;;5032343;28;20189;-71
2022/10/26 08:47:18;;;;;;;5.72;3.00;;;;;;;;;;4990448;28;20192;-71
2022/10/26 08:50:03;;;;;;;8.70;3.05;;;;;;;;;;5022447;28;20210;-71
2022/10/26 08:52:31;;;;;;;6.05;2.95;;;;;;;;;;5027214;28;20186;-71
2022/10/26 08:54:58;;;;;;;4.00;2.55;;;;;;;;;;5027132;28;20281;-72
2022/10/26 08:57:34;;;;;;;6.85;2.95;;;;;;;;;;5025288;28;20206;-72
2022/10/26 09:00:20;;;;;;;3.88;2.60;;;;;;;;;;5026766;28;20624;-71
2022/10/26 09:02:52;;;;;;;6.32;2.60;;;;;;;;;;5028520;28;20186;-71
2022/10/26 09:05:20;;;;;;;2.63;2.00;;;;;;;;;;5025571;28;20241;-73
2022/10/26 09:07:58;;;;;;;4.95;2.95;;;;;;;;;;5047430;28;20205;-74
2022/10/26 09:10:41;;;;;;;4.93;2.60;;;;;;;;;;5023389;28;20277;-71
2022/10/26 09:13:25;;;;;;;3.78;2.60;;;;;;;;;;5031922;28;20201;-72
2022/10/26 09:15:50;;;;;;;7.05;2.58;;;;;;;;;;5027577;28;20289;-71
2022/10/26 09:18:15;;;;;;;4.47;3.03;;;;;;;;;;5031365;28;20703;-71
2022/10/26 09:21:01;;;;;;;7.28;2.30;;;;;;;;;;5030008;28;20457;-71
2022/10/26 09:23:28;;;;;;;5.18;2.78;;;;;;;;;;5031223;28;20181;-71
2022/10/26 09:25:58;;;;;;;4.72;2.38;;;;;;;;;;5021034;28;20661;-71
2022/10/26 09:28:23;;;;;;;2.97;2.60;;;;;;;;;;5026291;28;20210;-71
2022/10/26 09:30:48;;;;;;;6.68;2.88;;;;;;;;;;5026108;28;20185;-70
2022/10/26 09:33:23;;;;;;;4.90;2.78;;;;;;;;;;5027987;28;20179;-70
2022/10/26 09:35:51;;;;;;;3.88;2.60;;;;;;;;;;5023720;28;20205;-70
2022/10/26 09:38:28;;;;;;;5.90;3.63;;;;;;;;;;5026321;28;20182;-70
2022/10/26 09:40:54;;;;;;;4.75;2.47;;;;;;;;;;5017512;28;20181;-70
2022/10/26 09:43:25;;;;;;;4.22;2.50;;;;;;;;;;5025972;28;20182;-70
2022/10/26 09:45:51;;;;;;;5.88;3.10;;;;;;;;;;5020375;28;20816;-71
2022/10/26 09:48:27;;;;;;;3.75;2.40;;;;;;;;;;5021860;28;21749;-70
2022/10/26 09:50:53;;;;;;;4.15;2.40;;;;;;;;;;5030064;28;20184;-70
2022/10/26 09:53:18;;;;;;;5.75;2.33;;;;;;;;;;5027145;28;20174;-70
2022/10/26 09:55:45;;;;;;;4.03;2.42;;;;;;;;;;5026205;28;20198;-70
2022/10/26 09:58:15;;;;;;;6.88;2.13;;;;;;;;;;5020448;28;20179;-70
2022/10/26 10:00:41;;;;;;;6.13;2.38;;;;;;;;;;5026703;28;20182;-71
2022/10/26 10:03:17;;;;;;;3.75;2.42;;;;;;;;;;5030376;28;20541;-71
2022/10/26 10:05:42;;;;;;;6.25;2.40;;;;;;;;;;5038921;28;20174;-71
2022/10/26 10:08:13;;;;;;;4.47;2.30;;;;;;;;;;5028512;28;20195;-71
2022/10/26 10:10:38;;;;;;;6.65;2.30;;;;;;;;;;5026104;28;20870;-71
2022/10/26 10:13:14;;;;;;;5.73;2.40;;;;;;;;;;5027799;28;20186;-71
2022/10/26 10:15:39;;;;;;;3.97;2.10;;;;;;;;;;5029316;28;20869;-71
2022/10/26 10:18:04;;;;;;;3.40;2.20;;;;;;;;;;5030729;28;20265;-71
2022/10/26 10:20:31;;;;;;;5.63;1.75;;;;;;;;;;5028080;28;20183;-70
2022/10/26 10:23:00;;;;;;;7.53;2.08;;;;;;;;;;5024458;28;20179;-71
2022/10/26 10:25:36;;;;;;;5.93;2.22;;;;;;;;;;5029340;28;20179;-71
2022/10/26 10:28:01;;;;;;;5.00;2.08;;;;;;;;;;5028834;28;20170;-70
2022/10/26 10:30:28;;;;;;;4.90;2.03;;;;;;;;;;5028107;28;20213;-70
2022/10/26 10:33:04;;;;;;;3.35;2.03;;;;;;;;;;5038351;28;20175;-71
2022/10/26 10:35:29;;;;;;;6.13;2.42;;;;;;;;;;5024395;28;20179;-72
2022/10/26 10:37:54;;;;;;;4.75;2.53;;;;;;;;;;5026141;28;20176;-71
2022/10/26 10:40:22;;;;;;;4.20;1.97;;;;;;;;;;5027092;28;20240;-71
2022/10/26 10:42:48;;;;;;;4.32;2.33;;;;;;;;;;5029947;28;20431;-71
2022/10/26 10:45:21;;;;;;;7.60;2.58;;;;;;;;;;5029012;28;20194;-71
2022/10/26 10:47:58;;;;;;;4.93;2.00;;;;;;;;;;5018094;28;20662;-71
2022/10/26 10:50:24;;;;;;;5.72;2.42;;;;;;;;;;5027465;28;20233;-71
2022/10/26 10:52:49;;;;;;;4.72;2.13;;;;;;;;;;5027490;28;20237;-71
2022/10/26 10:55:20;;;;;;;3.90;2.58;;;;;;;;;;5026388;28;20675;-71
2022/10/26 10:58:06;;;;;;;4.00;2.80;;;;;;;;;;5024719;28;20182;-70
2022/10/26 11:00:35;;;;;;;5.75;2.80;;;;;;;;;;5026811;28;20178;-70
2022/10/26 11:03:00;;;;;;;4.63;2.70;;;;;;;;;;5025517;28;20226;-70
2022/10/26 11:05:54;;;;;;;5.60;2.23;;;;;;;;;;5026577;28;20265;-70
2022/10/26 11:08:19;;;;;;;4.00;2.10;;;;;;;;;;5016450;28;20431;-70
2022/10/26 11:10:49;;;;;;;4.97;2.67;;;;;;;;;;5021560;28;20179;-70
2022/10/26 11:13:21;;;;;;;2.50;2.30;;;;;;;;;;5023053;28;20432;-70
2022/10/26 11:15:48;;;;;;;2.30;2.10;;;;;;;;;;5019469;28;20234;-70
2022/10/26 11:18:19;;;;;;;6.50;2.20;;;;;;;;;;5024075;28;20232;-70
2022/10/26 11:20:48;;;;;;;3.83;2.17;;;;;;;;;;5027622;28;20179;-70
2022/10/26 11:23:27;;;;;;;4.05;2.60;;;;;;;;;;5027038;28;20174;-70
2022/10/26 11:25:53;;;;;;;4.65;2.05;;;;;;;;;;5028420;28;20194;-70
2022/10/26 11:28:42;;;;;;;2.93;2.17;;;;;;;;;;4989348;28;1077814;-70
2022/10/26 11:31:11;;;;;;;2.03;1.80;;;;;;;;;;5021110;28;20198;-70
2022/10/26 11:33:40;;;;;;;2.58;2.22;;;;;;;;;;5033351;28;20198;-70
2022/10/26 11:36:12;;;;;;;3.90;2.35;;;;;;;;;;5023256;28;20452;-70
2022/10/26 11:38:47;;;;;;;6.68;2.28;;;;;;;;;;5031478;28;20225;-70
2022/10/26 11:41:17;;;;;;;3.50;2.08;;;;;;;;;;5045652;28;20224;-70
2022/10/26 11:43:45;;;;;;;3.30;1.80;;;;;;;;;;5037549;28;20678;-70
2022/10/26 11:46:28;;;;;;;5.82;2.65;;;;;;;;;;5033529;28;20244;-70
2022/10/26 11:49:03;;;;;;;2.90;1.80;;;;;;;;;;5026542;28;20203;-70
2022/10/26 11:51:34;;;;;;;4.05;1.77;;;;;;;;;;5030739;28;20186;-71
2022/10/26 11:54:02;;;;;;;4.72;2.22;;;;;;;;;;5029549;28;20213;-70
2022/10/26 11:56:33;;;;;;;4.90;1.70;;;;;;;;;;5020029;28;20687;-70
2022/10/26 11:58:58;;;;;;;4.18;2.10;;;;;;;;;;5029744;28;20198;-70
2022/10/26 12:01:24;;;;;;;4.57;2.00;;;;;;;;;;5020635;28;20262;-70
2022/10/26 12:03:52;;;;;;;3.67;1.60;;;;;;;;;;5032219;28;20189;-70
2022/10/26 12:06:23;;;;;;;8.07;2.33;;;;;;;;;;5026631;28;20255;-70
2022/10/26 12:09:06;;;;;;;6.32;1.75;;;;;;;;;;5023912;28;20196;-70
2022/10/26 12:11:31;;;;;;;4.05;2.25;;;;;;;;;;5024016;28;20187;-70
2022/10/26 12:14:03;;;;;;;3.85;1.85;;;;;;;;;;5028573;28;20170;-70
2022/10/26 12:16:34;;;;;;;5.75;2.20;;;;;;;;;;5021181;28;20233;-70
2022/10/26 12:19:03;;;;;;;6.07;2.25;;;;;;;;;;5030240;28;20197;-70
2022/10/26 12:21:29;;;;;;;3.40;2.00;;;;;;;;;;5025953;28;20171;-70
2022/10/26 12:23:59;;;;;;;9.13;3.08;;;;;;;;;;5043024;28;20176;-70
2022/10/26 12:26:27;;;;;;;9.88;2.70;;;;;;;;;;5029205;28;20218;-70
2022/10/26 12:29:01;;;;;;;6.13;2.40;;;;;;;;;;5028867;28;20264;-70
2022/10/26 12:31:35;;;;;;;3.83;2.58;;;;;;;;;;5028185;28;20630;-71
2022/10/26 12:34:01;;;;;;;6.55;1.73;;;;;;;;;;5032566;28;20232;-71
2022/10/26 12:36:45;;;;;;;4.22;2.03;;;;;;;;;;5028716;28;20238;-71
2022/10/26 12:39:29;;;;;;;6.50;2.17;;;;;;;;;;5041151;28;20289;-70
2022/10/26 12:42:08;;;;;;;4.15;2.13;;;;;;;;;;5023536;28;20985;-70
2022/10/26 12:44:36;;;;;;;6.88;3.17;;;;;;;;;;5023734;28;20185;-71
2022/10/26 12:47:01;;;;;;;4.75;2.10;;;;;;;;;;5024733;28;20182;-71
2022/10/26 12:49:46;;;;;;;7.97;3.03;;;;;;;;;;5033592;28;20731;-71
2022/10/26 12:52:18;;;;;;;5.50;2.40;;;;;;;;;;5021851;28;20234;-71
2022/10/26 12:54:59;;;;;;;7.03;2.90;;;;;;;;;;5022380;28;20186;-71
2022/10/26 12:57:29;;;;;;;3.53;1.92;;;;;;;;;;5028835;28;20248;-71
2022/10/26 13:00:03;;;;;;;6.00;2.22;;;;;;;;;;5032548;28;20683;-71
2022/10/26 13:02:31;;;;;;;4.65;2.33;;;;;;;;;;5025323;28;20185;-70
2022/10/26 13:05:12;;;;;;;2.88;1.67;;;;;;;;;;5022613;28;20253;-71
2022/10/26 13:07:39;;;;;;;6.15;2.10;;;;;;;;;;5027227;28;20197;-71
2022/10/26 13:10:14;;;;;;;3.58;2.33;;;;;;;;;;5024758;28;20233;-71
2022/10/26 13:12:48;;;;;;;5.13;1.85;;;;;;;;;;5028256;28;20178;-71
2022/10/26 13:15:19;;;;;;;4.35;2.00;;;;;;;;;;5031621;28;20287;-71
2022/10/26 13:17:51;;;;;;;5.25;2.70;;;;;;;;;;5022399;28;20230;-71
2022/10/26 13:20:17;;;;;;;6.40;2.17;;;;;;;;;;5027658;28;20206;-71
2022/10/26 13:22:44;;;;;;;4.95;1.83;;;;;;;;;;5034463;28;20176;-71
2022/10/26 13:25:19;;;;;;;3.95;2.03;;;;;;;;;;5028555;28;20175;-70
2022/10/26 13:27:56;;;;;;;4.68;1.50;;;;;;;;;;5017802;28;20185;-71
2022/10/26 13:30:44;;;;;;;2.88;1.65;;;;;;;;;;5024063;28;20209;-71
2022/10/26 13:33:21;;;;;;;6.07;1.80;;;;;;;;;;5021722;28;20258;-71
2022/10/26 13:35:46;;;;;;;5.63;1.60;;;;;;;;;;5022417;28;20189;-70
2022/10/26 13:38:12;;;;;;;4.93;2.08;;;;;;;;;;5028475;28;20178;-71
2022/10/26 13:40:37;;;;;;;1.95;1.13;;;;;;;;;;5026232;28;20179;-71
2022/10/26 13:43:04;;;;;;;6.22;1.95;;;;;;;;;;5030366;28;20228;-71
2022/10/26 13:45:30;;;;;;;4.55;1.40;;;;;;;;;;5026203;28;20171;-70
2022/10/26 13:48:10;;;;;;;6.50;1.70;;;;;;;;;;5022957;28;20195;-70
2022/10/26 13:50:38;;;;;;;7.10;1.92;;;;;;;;;;5026494;28;20232;-71
2022/10/26 13:53:07;;;;;;;3.30;1.42;;;;;;;;;;5023442;28;20179;-71
2022/10/26 13:55:36;;;;;;;3.40;1.48;;;;;;;;;;5032767;28;20227;-71
2022/10/26 13:58:16;;;;;;;10.18;2.38;;;;;;;;;;5019914;28;20175;-71
2022/10/26 14:01:00;;;;;;;3.92;1.48;;;;;;;;;;5028046;28;20243;-70
2022/10/26 14:03:26;;;;;;;2.63;1.58;;;;;;;;;;5025421;28;20178;-71
2022/10/26 14:05:51;;;;;;;6.60;1.60;;;;;;;;;;5025672;28;20378;-71
2022/10/26 14:08:18;;;;;;;3.15;1.25;;;;;;;;;;5022365;28;20281;-70
2022/10/26 14:10:50;;;;;;;4.57;1.40;;;;;;;;;;5028477;28;20644;-70
2022/10/26 14:13:20;;;;;;;3.10;1.48;;;;;;;;;;5029811;28;20265;-71
2022/10/26 14:15:45;;;;;;;3.58;1.25;;;;;;;;;;5021449;28;20179;-71
2022/10/26 14:18:15;;;;;;;3.60;1.00;;;;;;;;;;5023466;28;20251;-71
2022/10/26 14:20:46;;;;;;;6.65;1.52;;;;;;;;;;5029958;28;20196;-70
2022/10/26 14:23:27;;;;;;;2.22;1.05;;;;;;;;;;5020700;28;20647;-71
2022/10/26 14:25:54;;;;;;;3.63;1.38;;;;;;;;;;5028053;28;20185;-71
2022/10/26 14:28:20;;;;;;;2.72;1.10;;;;;;;;;;5025902;28;20205;-70
2022/10/26 14:30:45;;;;;;;4.43;1.60;;;;;;;;;;5025856;28;20261;-71
2022/10/26 14:33:18;;;;;;;3.97;1.30;;;;;;;;;;5028198;28;20265;-71
2022/10/26 14:35:43;;;;;;;4.75;1.65;;;;;;;;;;5026560;28;20182;-70
2022/10/26 14:38:21;;;;;;;3.30;1.50;;;;;;;;;;5025398;28;20193;-71
2022/10/26 14:40:47;;;;;;;5.53;2.08;;;;;;;;;;5028282;28;20576;-71
2022/10/26 14:43:16;;;;;;;6.13;1.35;;;;;;;;;;5027993;28;20178;-71
2022/10/26 14:45:46;;;;;;;5.22;1.45;;;;;;;;;;5037137;28;20182;-70
2022/10/26 14:48:19;;;;;;;4.13;1.60;;;;;;;;;;5031243;28;20183;-71
2022/10/26 14:50:56;;;;;;;3.92;1.10;;;;;;;;;;5027746;28;20166;-70
2022/10/26 14:53:21;;;;;;;4.22;1.85;;;;;;;;;;5024170;28;20210;-71
2022/10/26 14:55:50;;;;;;;3.25;1.05;;;;;;;;;;5045759;28;20202;-71